sensor_id;sensor_type;location;lat;lon;timestamp;temperature;humidity
19085;DHT22;9675;51.538;6.728;2024-02-28T00:00:13;5.50;99.90
19085;DHT22;9675;51.538;6.728;2024-02-28T00:02:40;5.50;99.90
19085;DHT22;9675;51.538;6.728;2024-02-28T00:05:08;5.50;99.90
19085;DHT22;9675;51.538;6.728;2024-02-28T00:07:35;5.50;99.90
19085;DHT22;9675;51.538;6.728;2024-02-28T00:10:02;5.40;99.90
19085;DHT22;9675;51.538;6.728;2024-02-28T00:12:30;5.40;99.90
19085;DHT22;9675;51.538;6.728;2024-02-28T00:14:57;5.40;99.90
19085;DHT22;9675;51.538;6.728;2024-02-28T00:17:25;5.40;99.90
19085;DHT22;9675;51.538;6.728;2024-02-28T00:19:52;5.40;99.90
19085;DHT22;9675;51.538;6.728;2024-02-28T00:22:19;5.40;99.90
19085;DHT22;9675;51.538;6.728;2024-02-28T00:24:46;5.40;99.90
19085;DHT22;9675;51.538;6.728;2024-02-28T00:27:13;5.40;99.90
19085;DHT22;9675;51.538;6.728;2024-02-28T00:29:40;5.40;99.90
19085;DHT22;9675;51.538;6.728;2024-02-28T00:32:07;5.40;99.90
19085;DHT22;9675;51.538;6.728;2024-02-28T00:34:36;5.30;99.90
19085;DHT22;9675;51.538;6.728;2024-02-28T00:37:03;5.30;99.90
19085;DHT22;9675;51.538;6.728;2024-02-28T00:39:30;5.30;99.90
19085;DHT22;9675;51.538;6.728;2024-02-28T00:41:57;5.30;99.90
19085;DHT22;9675;51.538;6.728;2024-02-28T00:44:24;5.30;99.90
19085;DHT22;9675;51.538;6.728;2024-02-28T00:46:51;5.30;99.90
19085;DHT22;9675;51.538;6.728;2024-02-28T00:49:18;5.20;99.90
19085;DHT22;9675;51.538;6.728;2024-02-28T00:51:47;5.20;99.90
19085;DHT22;9675;51.538;6.728;2024-02-28T00:54:14;5.20;99.90
19085;DHT22;9675;51.538;6.728;2024-02-28T00:56:41;5.20;99.90
19085;DHT22;9675;51.538;6.728;2024-02-28T00:59:08;5.20;99.90
19085;DHT22;9675;51.538;6.728;2024-02-28T01:01:36;5.20;99.90
19085;DHT22;9675;51.538;6.728;2024-02-28T01:04:03;5.20;99.90
19085;DHT22;9675;51.538;6.728;2024-02-28T01:06:30;5.20;99.90
19085;DHT22;9675;51.538;6.728;2024-02-28T01:08:59;5.20;99.90
19085;DHT22;9675;51.538;6.728;2024-02-28T01:11:26;5.20;99.90
19085;DHT22;9675;51.538;6.728;2024-02-28T01:13:53;5.20;99.90
19085;DHT22;9675;51.538;6.728;2024-02-28T01:16:20;5.20;99.90
19085;DHT22;9675;51.538;6.728;2024-02-28T01:18:47;5.20;99.90
19085;DHT22;9675;51.538;6.728;2024-02-28T01:21:14;5.20;99.90
19085;DHT22;9675;51.538;6.728;2024-02-28T01:23:41;5.20;99.90
19085;DHT22;9675;51.538;6.728;2024-02-28T01:26:09;5.20;99.90
19085;DHT22;9675;51.538;6.728;2024-02-28T01:28:36;5.20;99.90
19085;DHT22;9675;51.538;6.728;2024-02-28T01:31:03;5.20;99.90
19085;DHT22;9675;51.538;6.728;2024-02-28T01:33:31;5.10;99.90
19085;DHT22;9675;51.538;6.728;2024-02-28T01:35:58;5.10;99.90
19085;DHT22;9675;51.538;6.728;2024-02-28T01:38:25;5.10;99.90
19085;DHT22;9675;51.538;6.728;2024-02-28T01:40:53;5.10;99.90
19085;DHT22;9675;51.538;6.728;2024-02-28T01:43:21;5.10;99.90
19085;DHT22;9675;51.538;6.728;2024-02-28T01:45:49;5.10;99.90
19085;DHT22;9675;51.538;6.728;2024-02-28T01:48:17;5.10;99.90
19085;DHT22;9675;51.538;6.728;2024-02-28T01:50:44;5.10;99.90
19085;DHT22;9675;51.538;6.728;2024-02-28T01:53:13;5.10;99.90
19085;DHT22;9675;51.538;6.728;2024-02-28T01:55:40;5.20;99.90
19085;DHT22;9675;51.538;6.728;2024-02-28T01:58:09;5.20;99.90
19085;DHT22;9675;51.538;6.728;2024-02-28T02:00:38;5.20;99.90
19085;DHT22;9675;51.538;6.728;2024-02-28T02:03:06;5.20;99.90
19085;DHT22;9675;51.538;6.728;2024-02-28T02:05:33;5.20;99.90
19085;DHT22;9675;51.538;6.728;2024-02-28T02:08:01;5.10;99.90
19085;DHT22;9675;51.538;6.728;2024-02-28T02:10:28;5.10;99.90
19085;DHT22;9675;51.538;6.728;2024-02-28T02:12:55;5.10;99.90
19085;DHT22;9675;51.538;6.728;2024-02-28T02:15:31;5.10;99.90
19085;DHT22;9675;51.538;6.728;2024-02-28T02:18:00;5.10;99.90
19085;DHT22;9675;51.538;6.728;2024-02-28T02:20:30;5.10;99.90
19085;DHT22;9675;51.538;6.728;2024-02-28T02:23:03;5.10;99.90
19085;DHT22;9675;51.538;6.728;2024-02-28T02:25:30;5.10;99.90
19085;DHT22;9675;51.538;6.728;2024-02-28T02:27:57;5.10;99.90
19085;DHT22;9675;51.538;6.728;2024-02-28T02:30:24;5.10;99.90
19085;DHT22;9675;51.538;6.728;2024-02-28T02:32:51;5.10;99.90
19085;DHT22;9675;51.538;6.728;2024-02-28T02:35:18;5.00;99.90
19085;DHT22;9675;51.538;6.728;2024-02-28T02:37:45;5.10;99.90
19085;DHT22;9675;51.538;6.728;2024-02-28T02:40:15;5.00;99.90
19085;DHT22;9675;51.538;6.728;2024-02-28T02:42:42;5.00;99.90
19085;DHT22;9675;51.538;6.728;2024-02-28T02:45:09;5.00;99.90
19085;DHT22;9675;51.538;6.728;2024-02-28T02:47:37;5.00;99.90
19085;DHT22;9675;51.538;6.728;2024-02-28T02:50:05;5.00;99.90
19085;DHT22;9675;51.538;6.728;2024-02-28T02:52:33;5.00;99.90
19085;DHT22;9675;51.538;6.728;2024-02-28T02:55:00;4.90;99.90
19085;DHT22;9675;51.538;6.728;2024-02-28T02:57:28;4.90;99.90
19085;DHT22;9675;51.538;6.728;2024-02-28T02:59:56;4.90;99.90
19085;DHT22;9675;51.538;6.728;2024-02-28T03:02:23;5.00;99.90
19085;DHT22;9675;51.538;6.728;2024-02-28T03:04:50;5.00;99.90
19085;DHT22;9675;51.538;6.728;2024-02-28T03:07:17;5.00;99.90
19085;DHT22;9675;51.538;6.728;2024-02-28T03:09:44;5.00;99.90
19085;DHT22;9675;51.538;6.728;2024-02-28T03:12:11;5.00;99.90
19085;DHT22;9675;51.538;6.728;2024-02-28T03:14:40;5.00;99.90
19085;DHT22;9675;51.538;6.728;2024-02-28T03:17:07;5.00;99.90
19085;DHT22;9675;51.538;6.728;2024-02-28T03:19:34;5.00;99.90
19085;DHT22;9675;51.538;6.728;2024-02-28T03:22:01;5.00;99.90
19085;DHT22;9675;51.538;6.728;2024-02-28T03:24:28;5.00;99.90
19085;DHT22;9675;51.538;6.728;2024-02-28T03:26:55;5.00;99.90
19085;DHT22;9675;51.538;6.728;2024-02-28T03:29:22;5.00;99.90
19085;DHT22;9675;51.538;6.728;2024-02-28T03:31:50;5.00;99.90
19085;DHT22;9675;51.538;6.728;2024-02-28T03:34:17;4.90;99.90
19085;DHT22;9675;51.538;6.728;2024-02-28T03:36:44;5.00;99.90
19085;DHT22;9675;51.538;6.728;2024-02-28T03:39:12;5.00;99.90
19085;DHT22;9675;51.538;6.728;2024-02-28T03:41:39;5.00;99.90
19085;DHT22;9675;51.538;6.728;2024-02-28T03:44:06;5.00;99.90
19085;DHT22;9675;51.538;6.728;2024-02-28T03:46:33;4.90;99.90
19085;DHT22;9675;51.538;6.728;2024-02-28T03:49:01;4.90;99.90
19085;DHT22;9675;51.538;6.728;2024-02-28T03:51:28;4.90;99.90
19085;DHT22;9675;51.538;6.728;2024-02-28T03:53:56;4.90;99.90
19085;DHT22;9675;51.538;6.728;2024-02-28T03:56:23;4.80;99.90
19085;DHT22;9675;51.538;6.728;2024-02-28T03:58:51;4.70;99.90
19085;DHT22;9675;51.538;6.728;2024-02-28T04:01:18;4.70;99.90
19085;DHT22;9675;51.538;6.728;2024-02-28T04:03:45;4.70;99.90
19085;DHT22;9675;51.538;6.728;2024-02-28T04:06:14;4.60;99.90
19085;DHT22;9675;51.538;6.728;2024-02-28T04:08:41;4.60;99.90
19085;DHT22;9675;51.538;6.728;2024-02-28T04:11:09;4.50;99.90
19085;DHT22;9675;51.538;6.728;2024-02-28T04:13:36;4.50;99.90
19085;DHT22;9675;51.538;6.728;2024-02-28T04:16:03;4.30;99.90
19085;DHT22;9675;51.538;6.728;2024-02-28T04:18:30;4.30;99.90
19085;DHT22;9675;51.538;6.728;2024-02-28T04:20:58;4.20;99.90
19085;DHT22;9675;51.538;6.728;2024-02-28T04:23:26;4.20;99.90
19085;DHT22;9675;51.538;6.728;2024-02-28T04:25:54;4.30;99.90
19085;DHT22;9675;51.538;6.728;2024-02-28T04:28:21;4.30;99.90
19085;DHT22;9675;51.538;6.728;2024-02-28T04:30:48;4.30;99.90
19085;DHT22;9675;51.538;6.728;2024-02-28T04:33:15;4.20;99.90
19085;DHT22;9675;51.538;6.728;2024-02-28T04:35:42;4.20;99.90
19085;DHT22;9675;51.538;6.728;2024-02-28T04:38:10;4.30;99.90
19085;DHT22;9675;51.538;6.728;2024-02-28T04:40:38;4.40;99.90
19085;DHT22;9675;51.538;6.728;2024-02-28T04:43:05;4.40;99.90
19085;DHT22;9675;51.538;6.728;2024-02-28T04:45:32;4.40;99.90
19085;DHT22;9675;51.538;6.728;2024-02-28T04:47:59;4.40;99.90
19085;DHT22;9675;51.538;6.728;2024-02-28T04:50:26;4.40;99.90
19085;DHT22;9675;51.538;6.728;2024-02-28T04:52:53;4.40;99.90
19085;DHT22;9675;51.538;6.728;2024-02-28T04:55:21;4.30;99.90
19085;DHT22;9675;51.538;6.728;2024-02-28T04:57:49;4.20;99.90
19085;DHT22;9675;51.538;6.728;2024-02-28T05:00:16;4.20;99.90
19085;DHT22;9675;51.538;6.728;2024-02-28T05:02:44;4.10;99.90
19085;DHT22;9675;51.538;6.728;2024-02-28T05:05:11;4.10;99.90
19085;DHT22;9675;51.538;6.728;2024-02-28T05:07:38;4.20;99.90
19085;DHT22;9675;51.538;6.728;2024-02-28T05:10:06;4.20;99.90
19085;DHT22;9675;51.538;6.728;2024-02-28T05:12:34;4.30;99.90
19085;DHT22;9675;51.538;6.728;2024-02-28T05:15:03;4.30;99.90
19085;DHT22;9675;51.538;6.728;2024-02-28T05:17:32;4.10;99.90
19085;DHT22;9675;51.538;6.728;2024-02-28T05:19:59;4.00;99.90
19085;DHT22;9675;51.538;6.728;2024-02-28T05:22:26;4.10;99.90
19085;DHT22;9675;51.538;6.728;2024-02-28T05:24:53;4.20;99.90
19085;DHT22;9675;51.538;6.728;2024-02-28T05:27:20;4.20;99.90
19085;DHT22;9675;51.538;6.728;2024-02-28T05:29:47;4.30;99.90
19085;DHT22;9675;51.538;6.728;2024-02-28T05:32:16;4.30;99.90
19085;DHT22;9675;51.538;6.728;2024-02-28T05:34:45;4.30;99.90
19085;DHT22;9675;51.538;6.728;2024-02-28T05:37:12;4.40;99.90
19085;DHT22;9675;51.538;6.728;2024-02-28T05:39:39;4.40;99.90
19085;DHT22;9675;51.538;6.728;2024-02-28T05:42:06;4.40;99.90
19085;DHT22;9675;51.538;6.728;2024-02-28T05:44:34;4.50;99.90
19085;DHT22;9675;51.538;6.728;2024-02-28T05:47:01;4.40;99.90
19085;DHT22;9675;51.538;6.728;2024-02-28T05:49:30;4.40;99.90
19085;DHT22;9675;51.538;6.728;2024-02-28T05:51:57;4.30;99.90
19085;DHT22;9675;51.538;6.728;2024-02-28T05:54:24;4.40;99.90
19085;DHT22;9675;51.538;6.728;2024-02-28T05:56:51;4.40;99.90
19085;DHT22;9675;51.538;6.728;2024-02-28T05:59:18;4.40;99.90
19085;DHT22;9675;51.538;6.728;2024-02-28T06:01:45;4.40;99.90
19085;DHT22;9675;51.538;6.728;2024-02-28T06:04:12;4.30;99.90
19085;DHT22;9675;51.538;6.728;2024-02-28T06:06:41;4.20;99.90
19085;DHT22;9675;51.538;6.728;2024-02-28T06:09:08;4.20;99.90
19085;DHT22;9675;51.538;6.728;2024-02-28T06:11:36;4.20;99.90
19085;DHT22;9675;51.538;6.728;2024-02-28T06:14:03;4.20;99.90
19085;DHT22;9675;51.538;6.728;2024-02-28T06:16:30;4.10;99.90
19085;DHT22;9675;51.538;6.728;2024-02-28T06:18:57;4.20;99.90
19085;DHT22;9675;51.538;6.728;2024-02-28T06:21:24;4.20;99.90
19085;DHT22;9675;51.538;6.728;2024-02-28T06:23:53;4.10;99.90
19085;DHT22;9675;51.538;6.728;2024-02-28T06:26:20;4.10;99.90
19085;DHT22;9675;51.538;6.728;2024-02-28T06:28:47;4.10;99.90
19085;DHT22;9675;51.538;6.728;2024-02-28T06:31:15;4.10;99.90
19085;DHT22;9675;51.538;6.728;2024-02-28T06:33:43;4.10;99.90
19085;DHT22;9675;51.538;6.728;2024-02-28T06:36:10;4.10;99.90
19085;DHT22;9675;51.538;6.728;2024-02-28T06:38:37;4.00;99.90
19085;DHT22;9675;51.538;6.728;2024-02-28T06:41:05;3.90;99.90
19085;DHT22;9675;51.538;6.728;2024-02-28T06:43:33;4.00;99.90
19085;DHT22;9675;51.538;6.728;2024-02-28T06:46:01;4.10;99.90
19085;DHT22;9675;51.538;6.728;2024-02-28T06:48:28;4.10;99.90
19085;DHT22;9675;51.538;6.728;2024-02-28T06:50:56;4.00;99.90
19085;DHT22;9675;51.538;6.728;2024-02-28T06:53:23;4.00;99.90
19085;DHT22;9675;51.538;6.728;2024-02-28T06:55:50;4.00;99.90
19085;DHT22;9675;51.538;6.728;2024-02-28T06:58:18;4.00;99.90
19085;DHT22;9675;51.538;6.728;2024-02-28T07:00:46;3.90;99.90
19085;DHT22;9675;51.538;6.728;2024-02-28T07:03:14;3.90;99.90
19085;DHT22;9675;51.538;6.728;2024-02-28T07:05:41;4.00;99.90
19085;DHT22;9675;51.538;6.728;2024-02-28T07:08:08;4.10;99.90
19085;DHT22;9675;51.538;6.728;2024-02-28T07:10:36;4.00;99.90
19085;DHT22;9675;51.538;6.728;2024-02-28T07:13:08;4.00;99.90
19085;DHT22;9675;51.538;6.728;2024-02-28T07:15:37;4.10;99.90
19085;DHT22;9675;51.538;6.728;2024-02-28T07:18:05;4.00;99.90
19085;DHT22;9675;51.538;6.728;2024-02-28T07:20:32;4.10;99.90
19085;DHT22;9675;51.538;6.728;2024-02-28T07:23:00;4.00;99.90
19085;DHT22;9675;51.538;6.728;2024-02-28T07:25:27;4.00;99.90
19085;DHT22;9675;51.538;6.728;2024-02-28T07:27:57;3.90;99.90
19085;DHT22;9675;51.538;6.728;2024-02-28T07:30:24;3.90;99.90
19085;DHT22;9675;51.538;6.728;2024-02-28T07:32:53;3.90;99.90
19085;DHT22;9675;51.538;6.728;2024-02-28T07:35:21;3.90;99.90
19085;DHT22;9675;51.538;6.728;2024-02-28T07:37:49;3.90;99.90
19085;DHT22;9675;51.538;6.728;2024-02-28T07:40:17;4.00;99.90
19085;DHT22;9675;51.538;6.728;2024-02-28T07:42:44;4.00;99.90
19085;DHT22;9675;51.538;6.728;2024-02-28T07:45:12;4.00;99.90
19085;DHT22;9675;51.538;6.728;2024-02-28T07:47:39;4.00;99.90
19085;DHT22;9675;51.538;6.728;2024-02-28T07:50:08;4.00;99.90
19085;DHT22;9675;51.538;6.728;2024-02-28T07:52:35;4.00;99.90
19085;DHT22;9675;51.538;6.728;2024-02-28T07:55:03;4.00;99.90
19085;DHT22;9675;51.538;6.728;2024-02-28T07:57:32;4.00;99.90
19085;DHT22;9675;51.538;6.728;2024-02-28T07:59:59;4.10;99.90
19085;DHT22;9675;51.538;6.728;2024-02-28T08:02:26;4.10;99.90
19085;DHT22;9675;51.538;6.728;2024-02-28T08:04:53;4.10;99.90
19085;DHT22;9675;51.538;6.728;2024-02-28T08:07:22;4.10;99.90
19085;DHT22;9675;51.538;6.728;2024-02-28T08:09:49;4.10;99.90
19085;DHT22;9675;51.538;6.728;2024-02-28T08:12:16;4.10;99.90
19085;DHT22;9675;51.538;6.728;2024-02-28T08:14:43;4.10;99.90
19085;DHT22;9675;51.538;6.728;2024-02-28T08:17:11;4.20;99.90
19085;DHT22;9675;51.538;6.728;2024-02-28T08:19:41;4.20;99.90
19085;DHT22;9675;51.538;6.728;2024-02-28T08:22:08;4.20;99.90
19085;DHT22;9675;51.538;6.728;2024-02-28T08:24:37;4.10;99.90
19085;DHT22;9675;51.538;6.728;2024-02-28T08:27:05;4.20;99.90
19085;DHT22;9675;51.538;6.728;2024-02-28T08:29:32;4.20;99.90
19085;DHT22;9675;51.538;6.728;2024-02-28T08:32:01;4.20;99.90
19085;DHT22;9675;51.538;6.728;2024-02-28T08:34:28;4.20;99.90
19085;DHT22;9675;51.538;6.728;2024-02-28T08:36:55;4.20;99.90
19085;DHT22;9675;51.538;6.728;2024-02-28T08:39:22;4.20;99.90
19085;DHT22;9675;51.538;6.728;2024-02-28T08:41:51;4.30;99.90
19085;DHT22;9675;51.538;6.728;2024-02-28T08:44:18;4.30;99.90
19085;DHT22;9675;51.538;6.728;2024-02-28T08:46:46;4.40;99.90
19085;DHT22;9675;51.538;6.728;2024-02-28T08:49:14;4.40;99.90
19085;DHT22;9675;51.538;6.728;2024-02-28T08:51:42;4.40;99.90
19085;DHT22;9675;51.538;6.728;2024-02-28T08:54:09;4.40;99.90
19085;DHT22;9675;51.538;6.728;2024-02-28T08:56:36;4.40;99.90
19085;DHT22;9675;51.538;6.728;2024-02-28T08:59:05;4.50;99.90
19085;DHT22;9675;51.538;6.728;2024-02-28T09:01:32;4.50;99.90
19085;DHT22;9675;51.538;6.728;2024-02-28T09:03:59;4.50;99.90
19085;DHT22;9675;51.538;6.728;2024-02-28T09:06:26;4.60;99.90
19085;DHT22;9675;51.538;6.728;2024-02-28T09:08:53;4.60;99.90
19085;DHT22;9675;51.538;6.728;2024-02-28T09:11:20;4.50;99.90
19085;DHT22;9675;51.538;6.728;2024-02-28T09:13:47;4.60;99.90
19085;DHT22;9675;51.538;6.728;2024-02-28T09:16:16;4.60;99.90
19085;DHT22;9675;51.538;6.728;2024-02-28T09:18:44;4.60;99.90
19085;DHT22;9675;51.538;6.728;2024-02-28T09:21:11;4.60;99.90
19085;DHT22;9675;51.538;6.728;2024-02-28T09:23:38;4.60;99.90
19085;DHT22;9675;51.538;6.728;2024-02-28T09:26:05;4.60;99.90
19085;DHT22;9675;51.538;6.728;2024-02-28T09:28:32;4.70;99.90
19085;DHT22;9675;51.538;6.728;2024-02-28T09:31:00;4.70;99.90
19085;DHT22;9675;51.538;6.728;2024-02-28T09:33:28;4.70;99.90
19085;DHT22;9675;51.538;6.728;2024-02-28T09:35:55;4.70;99.90
19085;DHT22;9675;51.538;6.728;2024-02-28T09:38:22;4.80;99.90
19085;DHT22;9675;51.538;6.728;2024-02-28T09:40:49;4.80;99.90
19085;DHT22;9675;51.538;6.728;2024-02-28T09:43:25;4.80;99.90
19085;DHT22;9675;51.538;6.728;2024-02-28T09:45:59;4.90;99.90
19085;DHT22;9675;51.538;6.728;2024-02-28T09:48:31;4.90;99.90
19085;DHT22;9675;51.538;6.728;2024-02-28T09:51:03;4.90;99.90
19085;DHT22;9675;51.538;6.728;2024-02-28T09:53:31;4.90;99.90
19085;DHT22;9675;51.538;6.728;2024-02-28T09:55:58;5.00;99.90
19085;DHT22;9675;51.538;6.728;2024-02-28T09:58:27;5.00;99.90
19085;DHT22;9675;51.538;6.728;2024-02-28T10:00:56;5.00;99.90
19085;DHT22;9675;51.538;6.728;2024-02-28T10:03:31;5.00;99.90
19085;DHT22;9675;51.538;6.728;2024-02-28T10:05:58;5.10;99.90
19085;DHT22;9675;51.538;6.728;2024-02-28T10:08:25;5.10;99.90
19085;DHT22;9675;51.538;6.728;2024-02-28T10:10:54;5.20;99.90
19085;DHT22;9675;51.538;6.728;2024-02-28T10:13:23;5.20;99.90
19085;DHT22;9675;51.538;6.728;2024-02-28T10:15:50;5.20;99.90
19085;DHT22;9675;51.538;6.728;2024-02-28T10:18:17;5.30;99.90
19085;DHT22;9675;51.538;6.728;2024-02-28T10:20:45;5.30;99.90
19085;DHT22;9675;51.538;6.728;2024-02-28T10:23:14;5.30;99.90
19085;DHT22;9675;51.538;6.728;2024-02-28T10:25:42;5.30;99.90
19085;DHT22;9675;51.538;6.728;2024-02-28T10:28:10;5.40;99.90
19085;DHT22;9675;51.538;6.728;2024-02-28T10:30:40;5.40;99.90
19085;DHT22;9675;51.538;6.728;2024-02-28T10:33:11;5.50;99.90
19085;DHT22;9675;51.538;6.728;2024-02-28T10:35:39;5.50;99.90
19085;DHT22;9675;51.538;6.728;2024-02-28T10:38:10;5.50;99.90
19085;DHT22;9675;51.538;6.728;2024-02-28T10:40:38;5.60;99.90
19085;DHT22;9675;51.538;6.728;2024-02-28T10:43:08;5.60;99.90
19085;DHT22;9675;51.538;6.728;2024-02-28T10:45:36;5.70;99.90
19085;DHT22;9675;51.538;6.728;2024-02-28T10:48:04;5.70;99.90
19085;DHT22;9675;51.538;6.728;2024-02-28T10:50:33;5.80;99.90
19085;DHT22;9675;51.538;6.728;2024-02-28T10:53:02;5.90;99.90
19085;DHT22;9675;51.538;6.728;2024-02-28T10:55:33;5.90;99.90
19085;DHT22;9675;51.538;6.728;2024-02-28T10:58:03;5.90;99.90
19085;DHT22;9675;51.538;6.728;2024-02-28T11:00:35;5.90;99.90
19085;DHT22;9675;51.538;6.728;2024-02-28T11:03:04;6.00;99.90
19085;DHT22;9675;51.538;6.728;2024-02-28T11:05:35;6.00;99.90
19085;DHT22;9675;51.538;6.728;2024-02-28T11:08:05;6.00;99.90
19085;DHT22;9675;51.538;6.728;2024-02-28T11:10:39;6.10;99.90
19085;DHT22;9675;51.538;6.728;2024-02-28T11:13:08;6.10;99.90
19085;DHT22;9675;51.538;6.728;2024-02-28T11:15:36;6.10;99.90
19085;DHT22;9675;51.538;6.728;2024-02-28T11:18:10;6.20;99.90
19085;DHT22;9675;51.538;6.728;2024-02-28T11:20:38;6.20;99.90
19085;DHT22;9675;51.538;6.728;2024-02-28T11:23:06;6.20;99.90
19085;DHT22;9675;51.538;6.728;2024-02-28T11:25:35;6.20;99.90
19085;DHT22;9675;51.538;6.728;2024-02-28T11:28:04;6.20;99.90
19085;DHT22;9675;51.538;6.728;2024-02-28T11:30:32;6.20;99.90
19085;DHT22;9675;51.538;6.728;2024-02-28T11:32:59;6.30;99.90
19085;DHT22;9675;51.538;6.728;2024-02-28T11:35:26;6.30;99.90
19085;DHT22;9675;51.538;6.728;2024-02-28T11:37:54;6.40;99.90
19085;DHT22;9675;51.538;6.728;2024-02-28T11:40:23;6.40;99.90
19085;DHT22;9675;51.538;6.728;2024-02-28T11:42:54;6.30;99.90
19085;DHT22;9675;51.538;6.728;2024-02-28T11:45:22;6.40;99.90
19085;DHT22;9675;51.538;6.728;2024-02-28T11:47:49;6.40;99.90
19085;DHT22;9675;51.538;6.728;2024-02-28T11:50:18;6.40;99.90
19085;DHT22;9675;51.538;6.728;2024-02-28T11:52:45;6.40;99.90
19085;DHT22;9675;51.538;6.728;2024-02-28T11:55:13;6.40;99.90
19085;DHT22;9675;51.538;6.728;2024-02-28T11:57:40;6.50;99.90
19085;DHT22;9675;51.538;6.728;2024-02-28T12:00:09;6.50;99.90
19085;DHT22;9675;51.538;6.728;2024-02-28T12:02:38;6.50;99.90
19085;DHT22;9675;51.538;6.728;2024-02-28T12:05:06;6.50;99.90
19085;DHT22;9675;51.538;6.728;2024-02-28T12:07:35;6.60;99.90
19085;DHT22;9675;51.538;6.728;2024-02-28T12:10:04;6.60;99.90
19085;DHT22;9675;51.538;6.728;2024-02-28T12:12:34;6.70;99.90
19085;DHT22;9675;51.538;6.728;2024-02-28T12:15:01;6.70;99.90
19085;DHT22;9675;51.538;6.728;2024-02-28T12:17:32;6.70;99.90
19085;DHT22;9675;51.538;6.728;2024-02-28T12:19:59;6.70;99.90
19085;DHT22;9675;51.538;6.728;2024-02-28T12:22:26;6.80;99.90
19085;DHT22;9675;51.538;6.728;2024-02-28T12:24:53;6.80;99.90
19085;DHT22;9675;51.538;6.728;2024-02-28T12:27:21;6.90;99.90
19085;DHT22;9675;51.538;6.728;2024-02-28T12:29:48;6.90;99.90
19085;DHT22;9675;51.538;6.728;2024-02-28T12:32:15;6.90;99.90
19085;DHT22;9675;51.538;6.728;2024-02-28T12:34:44;6.90;99.90
19085;DHT22;9675;51.538;6.728;2024-02-28T12:37:11;7.00;99.90
19085;DHT22;9675;51.538;6.728;2024-02-28T12:39:38;7.00;99.90
19085;DHT22;9675;51.538;6.728;2024-02-28T12:42:07;7.00;99.90
19085;DHT22;9675;51.538;6.728;2024-02-28T12:44:34;7.10;99.90
19085;DHT22;9675;51.538;6.728;2024-02-28T12:47:01;7.20;99.90
19085;DHT22;9675;51.538;6.728;2024-02-28T12:49:28;7.30;99.90
19085;DHT22;9675;51.538;6.728;2024-02-28T12:51:57;7.30;99.90
19085;DHT22;9675;51.538;6.728;2024-02-28T12:54:24;7.40;99.90
19085;DHT22;9675;51.538;6.728;2024-02-28T12:56:51;7.40;99.90
19085;DHT22;9675;51.538;6.728;2024-02-28T12:59:18;7.50;99.90
19085;DHT22;9675;51.538;6.728;2024-02-28T13:01:45;7.60;99.90
19085;DHT22;9675;51.538;6.728;2024-02-28T13:04:13;7.60;99.90
19085;DHT22;9675;51.538;6.728;2024-02-28T13:06:41;7.70;99.90
19085;DHT22;9675;51.538;6.728;2024-02-28T13:09:09;7.80;99.90
19085;DHT22;9675;51.538;6.728;2024-02-28T13:11:39;7.80;99.90
19085;DHT22;9675;51.538;6.728;2024-02-28T13:14:06;7.90;99.90
19085;DHT22;9675;51.538;6.728;2024-02-28T13:16:34;7.90;99.90
19085;DHT22;9675;51.538;6.728;2024-02-28T13:19:01;8.00;99.90
19085;DHT22;9675;51.538;6.728;2024-02-28T13:21:29;8.10;99.90
19085;DHT22;9675;51.538;6.728;2024-02-28T13:23:57;8.10;99.90
19085;DHT22;9675;51.538;6.728;2024-02-28T13:26:26;8.20;99.90
19085;DHT22;9675;51.538;6.728;2024-02-28T13:28:53;8.20;99.90
19085;DHT22;9675;51.538;6.728;2024-02-28T13:31:20;8.30;99.90
19085;DHT22;9675;51.538;6.728;2024-02-28T13:33:47;8.30;99.90
19085;DHT22;9675;51.538;6.728;2024-02-28T13:36:14;8.30;99.90
19085;DHT22;9675;51.538;6.728;2024-02-28T13:38:41;8.40;99.90
19085;DHT22;9675;51.538;6.728;2024-02-28T13:41:09;8.40;99.90
19085;DHT22;9675;51.538;6.728;2024-02-28T13:43:38;8.50;99.90
19085;DHT22;9675;51.538;6.728;2024-02-28T13:46:05;8.50;99.90
19085;DHT22;9675;51.538;6.728;2024-02-28T13:48:32;8.60;99.90
19085;DHT22;9675;51.538;6.728;2024-02-28T13:50:59;8.60;99.90
19085;DHT22;9675;51.538;6.728;2024-02-28T13:53:27;8.60;99.90
19085;DHT22;9675;51.538;6.728;2024-02-28T13:55:54;8.60;99.90
19085;DHT22;9675;51.538;6.728;2024-02-28T13:58:21;8.70;99.90
19085;DHT22;9675;51.538;6.728;2024-02-28T14:00:50;8.70;99.90
19085;DHT22;9675;51.538;6.728;2024-02-28T14:03:18;8.70;99.90
19085;DHT22;9675;51.538;6.728;2024-02-28T14:05:46;8.80;99.90
19085;DHT22;9675;51.538;6.728;2024-02-28T14:08:13;8.80;99.90
19085;DHT22;9675;51.538;6.728;2024-02-28T14:10:40;8.90;99.90
19085;DHT22;9675;51.538;6.728;2024-02-28T14:13:07;8.90;99.90
19085;DHT22;9675;51.538;6.728;2024-02-28T14:15:35;8.90;99.90
19085;DHT22;9675;51.538;6.728;2024-02-28T14:18:04;8.90;99.90
19085;DHT22;9675;51.538;6.728;2024-02-28T14:20:31;8.90;99.90
19085;DHT22;9675;51.538;6.728;2024-02-28T14:22:58;9.00;99.90
19085;DHT22;9675;51.538;6.728;2024-02-28T14:25:25;9.00;99.90
19085;DHT22;9675;51.538;6.728;2024-02-28T14:27:53;9.00;99.90
19085;DHT22;9675;51.538;6.728;2024-02-28T14:30:21;9.10;99.90
19085;DHT22;9675;51.538;6.728;2024-02-28T14:32:49;9.10;99.90
19085;DHT22;9675;51.538;6.728;2024-02-28T14:35:18;9.10;99.90
19085;DHT22;9675;51.538;6.728;2024-02-28T14:37:45;9.10;99.90
19085;DHT22;9675;51.538;6.728;2024-02-28T14:40:12;9.20;99.90
19085;DHT22;9675;51.538;6.728;2024-02-28T14:42:40;9.10;99.90
19085;DHT22;9675;51.538;6.728;2024-02-28T14:45:09;9.20;99.90
19085;DHT22;9675;51.538;6.728;2024-02-28T14:47:37;9.20;99.90
19085;DHT22;9675;51.538;6.728;2024-02-28T14:50:05;9.30;99.90
19085;DHT22;9675;51.538;6.728;2024-02-28T14:52:36;9.30;99.90
19085;DHT22;9675;51.538;6.728;2024-02-28T14:55:05;9.30;99.90
19085;DHT22;9675;51.538;6.728;2024-02-28T14:57:33;9.30;99.90
19085;DHT22;9675;51.538;6.728;2024-02-28T15:00:00;9.40;99.90
19085;DHT22;9675;51.538;6.728;2024-02-28T15:02:33;9.40;99.90
19085;DHT22;9675;51.538;6.728;2024-02-28T15:05:01;9.40;99.90
19085;DHT22;9675;51.538;6.728;2024-02-28T15:07:31;9.40;99.90
19085;DHT22;9675;51.538;6.728;2024-02-28T15:09:59;9.40;99.90
19085;DHT22;9675;51.538;6.728;2024-02-28T15:12:29;9.40;99.90
19085;DHT22;9675;51.538;6.728;2024-02-28T15:14:58;9.40;99.90
19085;DHT22;9675;51.538;6.728;2024-02-28T15:17:25;9.40;99.90
19085;DHT22;9675;51.538;6.728;2024-02-28T15:19:52;9.40;99.90
19085;DHT22;9675;51.538;6.728;2024-02-28T15:22:19;9.40;99.90
19085;DHT22;9675;51.538;6.728;2024-02-28T15:24:46;9.40;99.90
19085;DHT22;9675;51.538;6.728;2024-02-28T15:27:15;9.50;99.90
19085;DHT22;9675;51.538;6.728;2024-02-28T15:29:42;9.50;99.90
19085;DHT22;9675;51.538;6.728;2024-02-28T15:32:09;9.50;99.90
19085;DHT22;9675;51.538;6.728;2024-02-28T15:34:36;9.50;99.90
19085;DHT22;9675;51.538;6.728;2024-02-28T15:37:05;9.50;99.90
19085;DHT22;9675;51.538;6.728;2024-02-28T15:39:34;9.60;99.90
19085;DHT22;9675;51.538;6.728;2024-02-28T15:42:01;9.60;99.90
19085;DHT22;9675;51.538;6.728;2024-02-28T15:44:30;9.60;99.90
19085;DHT22;9675;51.538;6.728;2024-02-28T15:46:57;9.60;99.90
19085;DHT22;9675;51.538;6.728;2024-02-28T15:49:24;9.60;99.90
19085;DHT22;9675;51.538;6.728;2024-02-28T15:51:51;9.60;99.90
19085;DHT22;9675;51.538;6.728;2024-02-28T15:54:18;9.60;99.90
19085;DHT22;9675;51.538;6.728;2024-02-28T15:56:45;9.60;99.90
19085;DHT22;9675;51.538;6.728;2024-02-28T15:59:12;9.50;99.90
19085;DHT22;9675;51.538;6.728;2024-02-28T16:01:41;9.60;99.90
19085;DHT22;9675;51.538;6.728;2024-02-28T16:04:08;9.50;99.90